createdAt,value
2022-11-14T00:01:35.172Z,11.00
2022-11-14T00:04:24.292Z,10.67
2022-11-14T00:07:12.492Z,11.37
2022-11-14T00:09:57.991Z,11.43
2022-11-14T00:12:43.290Z,12.10
2022-11-14T00:15:28.443Z,12.20
2022-11-14T00:18:14.518Z,11.73
2022-11-14T00:20:59.717Z,11.83
2022-11-14T00:23:45.223Z,12.23
2022-11-14T00:26:30.671Z,11.10
2022-11-14T00:29:16.098Z,11.77
2022-11-14T00:32:01.465Z,11.27
2022-11-14T00:34:47.279Z,12.03
2022-11-14T00:37:32.437Z,11.90
2022-11-14T00:40:18.078Z,11.63
2022-11-14T00:43:03.415Z,12.37
2022-11-14T00:45:49.345Z,12.47
2022-11-14T00:48:35.263Z,11.70
2022-11-14T00:51:20.715Z,11.10
2022-11-14T00:54:06.171Z,12.50
2022-11-14T00:56:52.217Z,12.40
2022-11-14T00:59:37.676Z,12.57
2022-11-14T01:02:23.786Z,12.30
2022-11-14T01:05:09.093Z,12.23
2022-11-14T01:07:54.678Z,12.20
2022-11-14T01:10:45.334Z,11.70
2022-11-14T01:13:32.237Z,11.93
2022-11-14T01:16:17.524Z,11.73
2022-11-14T01:19:03.528Z,12.03
2022-11-14T01:21:48.984Z,12.10
2022-11-14T01:24:34.902Z,11.10
2022-11-14T01:27:20.663Z,12.17
2022-11-14T01:30:06.883Z,11.67
2022-11-14T01:32:52.137Z,11.97
2022-11-14T01:35:38.465Z,11.57
2022-11-14T01:38:23.732Z,12.77
2022-11-14T01:41:10.423Z,12.10
2022-11-14T01:43:55.726Z,11.87
2022-11-14T01:46:42.714Z,11.70
2022-11-14T01:49:39.210Z,10.93
2022-11-14T01:52:32.308Z,11.63
2022-11-14T01:55:17.796Z,11.83
2022-11-14T01:58:03.354Z,11.27
2022-11-14T02:00:48.360Z,11.57
2022-11-14T02:03:36.426Z,11.20
2022-11-14T02:06:23.713Z,11.57
2022-11-14T02:09:08.896Z,11.77
2022-11-14T02:11:55.463Z,10.40
2022-11-14T02:14:41.792Z,11.20
2022-11-14T02:17:30.120Z,11.30
2022-11-14T02:20:20.414Z,10.57
2022-11-14T02:23:05.644Z,10.40
2022-11-14T02:25:50.980Z,11.20
2022-11-14T02:28:36.658Z,9.90
2022-11-14T02:31:22.336Z,9.70
2022-11-14T02:34:07.772Z,9.90
2022-11-14T02:36:53.407Z,10.40
2022-11-14T02:39:39.117Z,10.80
2022-11-14T02:42:24.769Z,10.43
2022-11-14T02:45:11.043Z,10.10
2022-11-14T02:47:56.761Z,10.90
2022-11-14T02:50:42.054Z,11.17
2022-11-14T02:53:27.574Z,10.63
2022-11-14T02:56:13.065Z,11.70
2022-11-14T02:58:58.344Z,10.73
2022-11-14T03:01:43.977Z,10.03
2022-11-14T03:04:29.663Z,11.03
2022-11-14T03:07:15.013Z,11.00
2022-11-14T03:10:00.365Z,11.33
2022-11-14T03:12:45.897Z,12.00
2022-11-14T03:15:31.265Z,10.93
2022-11-14T03:18:16.745Z,11.00
2022-11-14T03:21:10.108Z,12.00
2022-11-14T03:23:55.379Z,10.87
2022-11-14T03:26:40.835Z,11.93
2022-11-14T03:29:26.408Z,10.43
2022-11-14T03:32:11.631Z,11.43
2022-11-14T03:34:57.367Z,11.23
2022-11-14T03:37:42.512Z,10.10
2022-11-14T03:40:28.183Z,10.80
2022-11-14T03:43:13.193Z,11.17
2022-11-14T03:46:00.584Z,10.57
2022-11-14T03:48:45.846Z,9.97
2022-11-14T03:51:31.515Z,10.80
2022-11-14T03:54:16.541Z,10.73
2022-11-14T03:57:02.116Z,11.20
2022-11-14T03:59:47.404Z,10.47
2022-11-14T04:02:33.105Z,11.57
2022-11-14T04:05:18.346Z,11.80
2022-11-14T04:08:07.527Z,12.03
2022-11-14T04:10:52.791Z,11.13
2022-11-14T04:13:38.248Z,11.33
2022-11-14T04:16:23.570Z,10.90
2022-11-14T04:19:08.875Z,11.67
2022-11-14T04:21:54.784Z,11.73
2022-11-14T04:24:40.197Z,11.90
2022-11-14T04:27:25.585Z,12.70
2022-11-14T04:30:11.822Z,12.17
2022-11-14T04:32:56.948Z,11.90
2022-11-14T04:35:42.284Z,10.97
2022-11-14T04:38:28.159Z,10.77
2022-11-14T04:41:14.049Z,11.50
2022-11-14T04:43:59.454Z,11.77
2022-11-14T04:46:45.086Z,12.33
2022-11-14T04:49:35.441Z,13.57
2022-11-14T04:52:20.582Z,15.03
2022-11-14T04:55:06.116Z,12.77
2022-11-14T04:57:56.044Z,11.97
2022-11-14T05:00:41.322Z,11.77
2022-11-14T05:03:26.796Z,11.63
2022-11-14T05:06:12.337Z,11.83
2022-11-14T05:08:57.988Z,12.63
2022-11-14T05:11:43.261Z,11.40
2022-11-14T05:14:28.620Z,12.17
2022-11-14T05:17:14.019Z,12.57
2022-11-14T05:19:59.809Z,11.13
2022-11-14T05:22:45.134Z,12.00
2022-11-14T05:25:30.622Z,11.83
2022-11-14T05:28:16.206Z,10.93
2022-11-14T05:31:06.621Z,12.52
2022-11-14T05:33:52.746Z,11.23
2022-11-14T05:36:38.099Z,11.03
2022-11-14T05:39:23.482Z,11.93
2022-11-14T05:42:08.735Z,10.90
2022-11-14T05:44:54.232Z,11.40
2022-11-14T05:47:39.552Z,10.97
2022-11-14T05:50:25.234Z,11.73
2022-11-14T05:53:10.484Z,10.40
2022-11-14T05:55:55.844Z,11.00
2022-11-14T05:58:41.911Z,9.90
2022-11-14T06:01:28.141Z,10.30
2022-11-14T06:04:15.239Z,10.90
2022-11-14T06:07:00.738Z,9.63
2022-11-14T06:09:46.483Z,12.07
2022-11-14T06:12:32.807Z,10.10
2022-11-14T06:15:17.971Z,10.03
2022-11-14T06:18:03.524Z,10.17
2022-11-14T06:20:49.391Z,11.80
2022-11-14T06:23:34.653Z,10.63
2022-11-14T06:26:27.068Z,10.53
2022-11-14T06:29:12.975Z,10.53
2022-11-14T06:31:58.203Z,10.10
2022-11-14T06:34:44.460Z,10.53
2022-11-14T06:37:33.547Z,10.82
2022-11-14T06:40:19.342Z,10.85
2022-11-14T06:43:04.721Z,10.53
2022-11-14T06:45:55.056Z,10.03
2022-11-14T06:48:41.710Z,10.55
2022-11-14T06:51:27.121Z,10.27
2022-11-14T06:54:12.915Z,10.00
2022-11-14T06:56:58.335Z,11.00
2022-11-14T06:59:43.855Z,11.43
2022-11-14T07:02:29.148Z,10.30
2022-11-14T07:05:15.908Z,11.23
2022-11-14T07:08:01.675Z,11.03
2022-11-14T07:10:47.408Z,11.47
2022-11-14T07:13:33.600Z,10.10
2022-11-14T07:16:19.999Z,10.60
2022-11-14T07:19:09.960Z,9.83
2022-11-14T07:22:01.960Z,10.67
2022-11-14T07:24:47.367Z,10.40
2022-11-14T07:27:32.971Z,10.10
2022-11-14T07:30:18.487Z,9.98
2022-11-14T07:33:03.831Z,9.93
2022-11-14T07:35:51.160Z,10.02
2022-11-14T07:38:42.859Z,9.10
2022-11-14T07:41:28.598Z,9.77
2022-11-14T07:44:14.061Z,10.37
2022-11-14T07:46:59.785Z,9.90
2022-11-14T07:49:45.297Z,9.10
2022-11-14T07:52:31.588Z,8.65
2022-11-14T07:55:17.024Z,9.80
2022-11-14T07:58:02.770Z,9.43
2022-11-14T08:00:52.012Z,8.70
2022-11-14T08:03:42.290Z,8.93
2022-11-14T08:06:36.020Z,8.70
2022-11-14T08:09:23.236Z,9.10
2022-11-14T08:12:09.101Z,10.27
2022-11-14T08:14:54.840Z,9.93
2022-11-14T08:17:40.502Z,9.20
2022-11-14T08:20:26.938Z,8.30
2022-11-14T08:23:12.336Z,7.03
2022-11-14T08:25:59.250Z,6.87
2022-11-14T08:28:44.538Z,7.70
2022-11-14T08:31:29.954Z,7.47
2022-11-14T08:34:15.661Z,7.40
2022-11-14T08:37:01.528Z,8.23
2022-11-14T08:39:47.222Z,7.80
2022-11-14T08:42:33.083Z,8.40
2022-11-14T08:45:18.517Z,8.23
2022-11-14T08:48:03.716Z,8.27
2022-11-14T08:50:49.171Z,8.13
2022-11-14T08:53:34.556Z,8.17
2022-11-14T08:56:19.877Z,7.67
2022-11-14T08:59:05.268Z,8.17
2022-11-14T09:01:50.608Z,8.43
2022-11-14T09:04:36.064Z,7.03
2022-11-14T09:07:22.026Z,8.70
2022-11-14T09:10:08.096Z,8.20
2022-11-14T09:13:00.654Z,7.87
2022-11-14T09:15:46.384Z,8.10
2022-11-14T09:18:32.197Z,8.27
2022-11-14T09:21:17.763Z,8.83
2022-11-14T09:24:03.358Z,8.20
2022-11-14T09:26:55.209Z,8.43
2022-11-14T09:29:42.533Z,8.13
2022-11-14T09:32:28.088Z,7.80
2022-11-14T09:35:13.585Z,9.07
2022-11-14T09:38:04.633Z,7.93
2022-11-14T09:41:08.773Z,8.37
2022-11-14T09:44:03.570Z,8.87
2022-11-14T09:46:57.609Z,8.03
2022-11-14T09:49:45.058Z,7.17
2022-11-14T09:52:45.136Z,7.60
2022-11-14T09:55:37.233Z,7.40
2022-11-14T09:58:23.564Z,7.60
2022-11-14T10:01:29.390Z,7.33
2022-11-14T10:04:49.313Z,6.60
2022-11-14T10:08:03.891Z,6.50
2022-11-14T10:11:00.171Z,6.20
2022-11-14T10:13:51.658Z,6.10
2022-11-14T10:16:43.811Z,6.80
2022-11-14T10:19:42.857Z,6.27
2022-11-14T10:22:40.865Z,7.07
2022-11-14T10:25:32.114Z,6.80
2022-11-14T10:28:41.206Z,6.33
2022-11-14T10:31:35.775Z,7.30
2022-11-14T10:34:32.076Z,6.77
2022-11-14T10:37:24.134Z,6.90
2022-11-14T10:40:27.063Z,7.07
2022-11-14T10:43:18.562Z,6.73
2022-11-14T10:46:10.725Z,6.33
2022-11-14T10:49:00.017Z,6.50
2022-11-14T10:51:50.637Z,6.80
2022-11-14T10:54:46.883Z,7.00
2022-11-14T10:57:32.945Z,7.40
2022-11-14T11:00:25.261Z,6.93
2022-11-14T11:03:10.860Z,6.50
2022-11-14T11:05:59.464Z,7.37
2022-11-14T11:09:03.772Z,7.67
2022-11-14T11:11:56.286Z,7.67
2022-11-14T11:14:41.778Z,8.20
2022-11-14T11:17:34.105Z,8.33
2022-11-14T11:21:01.316Z,8.53
2022-11-14T11:23:52.683Z,8.07
2022-11-14T11:26:38.032Z,7.73
2022-11-14T11:29:23.601Z,8.33
2022-11-14T11:32:10.219Z,8.07
2022-11-14T11:34:57.683Z,8.80
2022-11-14T11:37:46.762Z,9.30
2022-11-14T11:40:32.203Z,8.87
2022-11-14T11:43:41.855Z,9.83
2022-11-14T11:46:49.105Z,10.30
2022-11-14T11:49:53.277Z,10.27
2022-11-14T11:52:48.636Z,9.73
2022-11-14T11:55:38.268Z,10.13
2022-11-14T11:58:31.840Z,10.00
2022-11-14T12:01:17.595Z,9.77
2022-11-14T12:04:04.172Z,9.77
2022-11-14T12:07:10.973Z,10.43
2022-11-14T12:10:10.596Z,9.77
2022-11-14T12:13:14.772Z,10.80
2022-11-14T12:16:23.851Z,10.10
2022-11-14T12:19:21.505Z,10.13
2022-11-14T12:22:25.423Z,9.37
2022-11-14T12:25:26.358Z,9.47
2022-11-14T12:28:40.032Z,8.63
2022-11-14T12:31:29.509Z,9.77
2022-11-14T12:34:26.301Z,9.37
2022-11-14T12:37:16.993Z,10.17
2022-11-14T12:40:06.542Z,9.70
2022-11-14T12:42:58.326Z,11.10
2022-11-14T12:45:55.986Z,9.80
2022-11-14T12:48:48.077Z,11.40
2022-11-14T12:51:33.880Z,11.07
2022-11-14T13:01:31.063Z,10.27
2022-11-14T13:04:39.371Z,10.73
2022-11-14T13:07:40.379Z,11.70
2022-11-14T13:10:31.183Z,10.77
2022-11-14T13:13:35.806Z,11.20
2022-11-14T13:16:45.474Z,11.67
2022-11-14T13:19:49.732Z,11.33
2022-11-14T13:22:45.393Z,11.13
2022-11-14T13:25:31.548Z,11.17
2022-11-14T13:28:38.818Z,10.90
2022-11-14T13:31:27.065Z,10.60
2022-11-14T13:34:40.942Z,10.53
2022-11-14T13:37:37.781Z,11.63
2022-11-14T13:40:38.253Z,11.30
2022-11-14T13:43:57.542Z,10.83
2022-11-14T13:47:05.358Z,11.07
2022-11-14T13:50:04.847Z,11.57
2022-11-14T13:52:50.647Z,10.37
2022-11-14T13:55:45.395Z,11.43
2022-11-14T13:58:46.275Z,10.53
2022-11-14T14:02:12.942Z,11.67
2022-11-14T14:05:14.448Z,11.53
2022-11-14T14:08:11.645Z,10.97
2022-11-14T14:11:16.148Z,11.60
2022-11-14T14:14:32.352Z,11.50
2022-11-14T14:17:33.614Z,11.33
2022-11-14T14:20:37.965Z,12.80
2022-11-14T14:23:42.245Z,11.57
2022-11-14T14:26:55.827Z,11.93
2022-11-14T14:30:03.724Z,11.70
2022-11-14T14:33:11.515Z,11.53
2022-11-14T14:35:56.757Z,12.70
2022-11-14T14:38:42.141Z,11.90
2022-11-14T14:41:31.531Z,13.10
2022-11-14T14:44:32.087Z,12.77
2022-11-14T14:47:28.578Z,12.40
2022-11-14T14:50:23.298Z,13.60
2022-11-14T14:53:26.603Z,13.07
2022-11-14T14:56:21.155Z,12.50
2022-11-14T14:59:21.120Z,13.67
2022-11-14T15:02:14.220Z,13.67
2022-11-14T15:05:00.388Z,13.80
2022-11-14T15:07:59.287Z,14.33
2022-11-14T15:10:45.835Z,15.53
2022-11-14T15:13:32.469Z,16.13
2022-11-14T15:16:18.751Z,15.37
2022-11-14T15:19:07.698Z,15.73
2022-11-14T15:22:19.003Z,15.50
2022-11-14T15:25:22.727Z,17.37
2022-11-14T15:28:22.036Z,15.07
2022-11-14T15:31:12.981Z,14.90
2022-11-14T15:34:24.343Z,15.87
2022-11-14T15:37:40.550Z,14.70
2022-11-14T15:40:26.499Z,15.67
2022-11-14T15:43:42.902Z,14.50
2022-11-14T15:46:37.238Z,15.00
2022-11-14T15:49:24.707Z,13.13
2022-11-14T15:52:40.931Z,14.63
2022-11-14T15:55:26.811Z,14.20
2022-11-14T15:58:27.884Z,13.63
2022-11-14T16:01:18.370Z,14.00
2022-11-14T16:04:04.168Z,13.77
2022-11-14T16:06:49.668Z,12.87
2022-11-14T16:09:35.134Z,13.90
2022-11-14T16:12:20.799Z,14.60
2022-11-14T16:15:07.067Z,14.00
2022-11-14T16:17:52.953Z,14.97
2022-11-14T16:20:39.838Z,14.37
2022-11-14T16:23:25.412Z,13.93
2022-11-14T16:26:10.812Z,14.03
2022-11-14T16:32:16.599Z,13.47
2022-11-14T16:35:02.574Z,14.47
2022-11-14T16:37:48.758Z,13.00
2022-11-14T16:40:35.751Z,13.17
2022-11-14T16:43:21.757Z,12.30
2022-11-14T16:46:10.290Z,12.90
2022-11-14T16:48:58.574Z,13.77
2022-11-14T16:51:49.580Z,13.13
2022-11-14T16:54:35.751Z,13.03
2022-11-14T16:57:21.581Z,11.77
2022-11-14T17:00:09.476Z,13.90
2022-11-14T17:02:56.656Z,13.13
2022-11-14T17:05:47.310Z,11.90
2022-11-14T17:08:32.981Z,12.43
2022-11-14T17:11:18.617Z,11.97
2022-11-14T17:14:07.855Z,12.97
2022-11-14T17:17:05.382Z,12.47
2022-11-14T17:19:52.166Z,12.50
2022-11-14T17:22:37.694Z,11.73
2022-11-14T17:25:23.517Z,11.30
2022-11-14T17:31:08.280Z,11.20
2022-11-14T17:33:58.113Z,12.10
2022-11-14T17:42:43.205Z,12.00
2022-11-14T17:45:28.762Z,10.07
2022-11-14T17:48:14.079Z,10.27
2022-11-14T17:51:11.462Z,10.40
2022-11-14T17:54:00.012Z,9.90
2022-11-14T18:00:05.476Z,10.30
2022-11-14T18:02:51.353Z,9.57
2022-11-14T18:05:36.763Z,9.27
2022-11-14T18:08:22.080Z,10.43
2022-11-14T18:11:11.514Z,9.70
2022-11-14T18:14:08.519Z,8.47
2022-11-14T18:17:12.299Z,9.90
2022-11-14T18:20:07.893Z,9.37
2022-11-14T18:22:53.976Z,9.43
2022-11-14T18:25:41.954Z,9.80
2022-11-14T18:28:27.383Z,9.53
2022-11-14T18:31:13.447Z,9.30
2022-11-14T18:33:58.626Z,9.37
2022-11-14T18:36:46.929Z,9.83
2022-11-14T18:39:32.618Z,9.97
2022-11-14T18:42:18.357Z,10.43
2022-11-14T18:45:04.070Z,9.90
2022-11-14T18:47:49.205Z,10.40
2022-11-14T18:50:34.792Z,10.83
2022-11-14T18:53:21.444Z,10.60
2022-11-14T18:56:10.437Z,11.70
2022-11-14T18:58:56.986Z,11.33
2022-11-14T19:01:42.384Z,10.63
2022-11-14T19:04:28.150Z,11.23
2022-11-14T19:07:16.434Z,12.20
2022-11-14T19:10:02.426Z,12.13
2022-11-14T19:12:48.675Z,12.00
2022-11-14T19:15:34.672Z,12.47
2022-11-14T19:18:20.451Z,11.83
2022-11-14T19:21:06.247Z,14.77
2022-11-14T19:23:51.504Z,14.57
2022-11-14T19:26:37.040Z,11.67
2022-11-14T19:29:22.781Z,12.40
2022-11-14T19:32:09.345Z,12.97
2022-11-14T19:35:23.760Z,11.23
2022-11-14T19:38:38.235Z,12.37
2022-11-14T19:41:27.913Z,12.67
2022-11-14T19:44:13.251Z,12.00
2022-11-14T19:46:58.833Z,12.73
2022-11-14T19:49:44.415Z,12.73
2022-11-14T19:52:30.283Z,12.73
2022-11-14T19:55:17.554Z,12.73
2022-11-14T19:58:03.251Z,12.73
2022-11-14T20:01:07.603Z,12.53
2022-11-14T20:04:07.958Z,13.43
2022-11-14T20:06:57.998Z,13.30
2022-11-14T20:09:43.606Z,12.90
2022-11-14T20:12:30.384Z,13.20
2022-11-14T20:15:21.577Z,13.50
2022-11-14T20:18:07.048Z,12.47
2022-11-14T20:20:52.961Z,13.53
2022-11-14T20:23:38.208Z,13.40
2022-11-14T20:26:24.430Z,13.97
2022-11-14T20:29:30.801Z,13.43
2022-11-14T20:32:16.544Z,12.63
2022-11-14T20:35:02.623Z,12.90
2022-11-14T20:37:48.591Z,13.50
2022-11-14T20:40:34.260Z,13.37
2022-11-14T20:43:19.961Z,12.80
2022-11-14T20:46:12.382Z,13.90
2022-11-14T20:48:57.990Z,13.33
2022-11-14T20:51:43.836Z,14.07
2022-11-14T20:54:29.620Z,13.33
2022-11-14T20:57:14.884Z,13.07
2022-11-14T21:00:00.974Z,13.23
2022-11-14T21:02:46.625Z,12.50
2022-11-14T21:05:31.852Z,13.10
2022-11-14T21:08:17.446Z,13.20
2022-11-14T21:11:08.974Z,13.53
2022-11-14T21:13:57.006Z,13.13
2022-11-14T21:16:42.154Z,15.00
2022-11-14T21:19:29.326Z,14.37
2022-11-14T21:22:15.194Z,15.17
2022-11-14T21:25:01.893Z,13.83
2022-11-14T21:27:47.467Z,13.33
2022-11-14T21:30:45.674Z,12.67
2022-11-14T21:33:33.209Z,14.23
2022-11-14T21:36:43.683Z,13.07
2022-11-14T21:39:26.038Z,14.20
2022-11-14T21:42:15.629Z,13.70
2022-11-14T21:45:03.920Z,14.40
2022-11-14T21:47:49.482Z,14.20
2022-11-14T21:50:34.919Z,13.83
2022-11-14T21:53:20.351Z,14.87
2022-11-14T21:56:17.637Z,14.27
2022-11-14T21:59:15.042Z,14.80
2022-11-14T22:02:19.173Z,15.30
2022-11-14T22:05:04.683Z,14.53
2022-11-14T22:07:50.705Z,13.63
2022-11-14T22:10:36.100Z,14.57
2022-11-14T22:13:21.372Z,14.30
2022-11-14T22:16:11.361Z,13.07
2022-11-14T22:19:02.038Z,14.80
2022-11-14T22:21:50.663Z,13.47
2022-11-14T22:24:36.234Z,14.83
2022-11-14T22:27:21.726Z,14.30
2022-11-14T22:30:07.656Z,14.63
2022-11-14T22:33:01.804Z,14.33
2022-11-14T22:35:47.314Z,15.20
2022-11-14T22:38:33.708Z,14.60
2022-11-14T22:41:21.220Z,13.83
2022-11-14T22:44:06.648Z,13.80
2022-11-14T22:46:52.141Z,13.80
2022-11-14T22:49:41.092Z,13.70
2022-11-14T22:52:26.684Z,12.37
2022-11-14T22:55:17.823Z,14.07
2022-11-14T22:58:04.224Z,13.80
2022-11-14T23:00:50.350Z,13.20
2022-11-14T23:03:36.340Z,13.03
2022-11-14T23:06:23.035Z,12.37
2022-11-14T23:09:08.626Z,12.97
2022-11-14T23:11:54.040Z,12.47
2022-11-14T23:14:39.319Z,12.27
2022-11-14T23:17:27.223Z,12.13
2022-11-14T23:20:16.229Z,12.23
2022-11-14T23:23:02.132Z,12.13
2022-11-14T23:25:48.029Z,11.50
2022-11-14T23:28:33.514Z,11.17
2022-11-14T23:31:19.475Z,11.87
2022-11-14T23:34:05.037Z,11.50
2022-11-14T23:36:50.352Z,10.80
2022-11-14T23:39:36.014Z,11.10
2022-11-14T23:42:21.298Z,11.40
2022-11-14T23:45:07.396Z,10.00
2022-11-14T23:47:53.088Z,11.57
2022-11-14T23:50:38.345Z,9.63
2022-11-14T23:53:24.280Z,11.37
2022-11-14T23:56:13.245Z,11.00
2022-11-14T23:58:58.844Z,9.83
